sensor_id;sensor_type;location;lat;lon;timestamp;pressure;altitude;pressure_sealevel;temperature;humidity
42169;BME280;27838;43.858;25.974;2023-02-01T00:00:28;101097.59;;;6.36;56.01
42169;BME280;27838;43.858;25.974;2023-02-01T00:02:54;101122.63;;;6.35;57.00
42169;BME280;27838;43.858;25.974;2023-02-01T00:05:21;101117.28;;;6.28;56.90
42169;BME280;27838;43.858;25.974;2023-02-01T00:07:48;101112.91;;;6.27;57.16
42169;BME280;27838;43.858;25.974;2023-02-01T00:10:14;101116.31;;;6.24;57.48
42169;BME280;27838;43.858;25.974;2023-02-01T00:12:41;101122.19;;;6.18;57.56
42169;BME280;27838;43.858;25.974;2023-02-01T00:15:08;101122.91;;;6.11;57.96
42169;BME280;27838;43.858;25.974;2023-02-01T00:17:34;101122.81;;;6.07;59.12
42169;BME280;27838;43.858;25.974;2023-02-01T00:20:01;101128.03;;;6.08;58.66
42169;BME280;27838;43.858;25.974;2023-02-01T00:22:28;101109.78;;;6.03;58.73
42169;BME280;27838;43.858;25.974;2023-02-01T00:24:54;101118.66;;;6.15;58.52
42169;BME280;27838;43.858;25.974;2023-02-01T00:27:21;101124.78;;;6.18;58.57
42169;BME280;27838;43.858;25.974;2023-02-01T00:29:47;101136.75;;;6.13;58.71
42169;BME280;27838;43.858;25.974;2023-02-01T00:32:14;101122.91;;;6.11;58.63
42169;BME280;27838;43.858;25.974;2023-02-01T00:34:40;101120.38;;;6.14;58.60
42169;BME280;27838;43.858;25.974;2023-02-01T00:37:07;101117.81;;;6.14;58.85
42169;BME280;27838;43.858;25.974;2023-02-01T00:39:33;101115.09;;;6.10;58.84
42169;BME280;27838;43.858;25.974;2023-02-01T00:42:00;101124.34;;;6.00;58.88
42169;BME280;27838;43.858;25.974;2023-02-01T00:44:28;101117.34;;;5.96;58.52
42169;BME280;27838;43.858;25.974;2023-02-01T00:46:58;101122.50;;;5.96;59.08
42169;BME280;27838;43.858;25.974;2023-02-01T00:49:25;101128.69;;;6.01;58.86
42169;BME280;27838;43.858;25.974;2023-02-01T00:51:51;101129.66;;;6.06;58.75
42169;BME280;27838;43.858;25.974;2023-02-01T00:54:18;101127.19;;;6.11;58.36
42169;BME280;27838;43.858;25.974;2023-02-01T00:56:44;101135.91;;;6.14;58.31
42169;BME280;27838;43.858;25.974;2023-02-01T00:59:11;101113.13;;;5.99;58.53
42169;BME280;27838;43.858;25.974;2023-02-01T01:01:38;101132.22;;;6.04;58.62
42169;BME280;27838;43.858;25.974;2023-02-01T01:04:05;101134.94;;;6.09;58.27
42169;BME280;27838;43.858;25.974;2023-02-01T01:06:33;101135.00;;;6.12;57.77
42169;BME280;27838;43.858;25.974;2023-02-01T01:09:01;101132.34;;;6.09;57.98
42169;BME280;27838;43.858;25.974;2023-02-01T01:11:30;101123.66;;;6.07;58.21
42169;BME280;27838;43.858;25.974;2023-02-01T01:13:58;101122.91;;;6.11;58.73
42169;BME280;27838;43.858;25.974;2023-02-01T01:16:27;101123.78;;;6.12;57.86
42169;BME280;27838;43.858;25.974;2023-02-01T01:18:55;101125.53;;;6.13;58.33
42169;BME280;27838;43.858;25.974;2023-02-01T01:21:22;101121.22;;;6.13;57.51
42169;BME280;27838;43.858;25.974;2023-02-01T01:23:48;101127.38;;;6.17;57.43
42169;BME280;27838;43.858;25.974;2023-02-01T01:26:20;101125.72;;;6.20;57.48
42169;BME280;27838;43.858;25.974;2023-02-01T01:28:48;101123.16;;;6.20;57.37
42169;BME280;27838;43.858;25.974;2023-02-01T01:31:16;101118.72;;;6.16;57.25
42169;BME280;27838;43.858;25.974;2023-02-01T01:33:44;101118.75;;;6.18;57.37
42169;BME280;27838;43.858;25.974;2023-02-01T01:36:11;101116.25;;;6.21;57.36
42169;BME280;27838;43.858;25.974;2023-02-01T01:38:42;101119.75;;;6.23;56.76
42169;BME280;27838;43.858;25.974;2023-02-01T01:41:13;101122.97;;;6.14;57.31
42169;BME280;27838;43.858;25.974;2023-02-01T01:44:00;101121.94;;;6.08;57.79
42169;BME280;27838;43.858;25.974;2023-02-01T01:46:32;101115.00;;;6.05;57.83
42169;BME280;27838;43.858;25.974;2023-02-01T01:49:13;101115.00;;;6.05;57.80
42169;BME280;27838;43.858;25.974;2023-02-01T01:51:46;101116.81;;;6.09;57.61
42169;BME280;27838;43.858;25.974;2023-02-01T01:54:38;101110.78;;;6.09;57.95
42169;BME280;27838;43.858;25.974;2023-02-01T01:57:23;101105.69;;;6.13;57.04
42169;BME280;27838;43.858;25.974;2023-02-01T02:00:08;101116.91;;;6.12;57.59
42169;BME280;27838;43.858;25.974;2023-02-01T02:02:36;101112.59;;;6.13;56.78
42169;BME280;27838;43.858;25.974;2023-02-01T02:05:04;101113.44;;;6.12;57.20
42169;BME280;27838;43.858;25.974;2023-02-01T02:07:35;101103.75;;;6.04;57.20
42169;BME280;27838;43.858;25.974;2023-02-01T02:10:04;101112.41;;;6.05;57.30
42169;BME280;27838;43.858;25.974;2023-02-01T02:12:32;101118.44;;;6.05;57.63
42169;BME280;27838;43.858;25.974;2023-02-01T02:14:59;101119.31;;;6.06;57.54
42169;BME280;27838;43.858;25.974;2023-02-01T02:31:45;101115.66;;;5.96;57.13
42169;BME280;27838;43.858;25.974;2023-02-01T02:37:04;101109.69;;;6.00;57.23
42169;BME280;27838;43.858;25.974;2023-02-01T02:42:39;101118.22;;;5.96;57.54
42169;BME280;27838;43.858;25.974;2023-02-01T02:49:02;101111.16;;;5.91;57.24
42169;BME280;27838;43.858;25.974;2023-02-01T02:51:35;101114.53;;;5.88;57.25
42169;BME280;27838;43.858;25.974;2023-02-01T02:54:26;101113.66;;;5.88;57.47
42169;BME280;27838;43.858;25.974;2023-02-01T02:57:38;101114.53;;;5.88;57.98
42169;BME280;27838;43.858;25.974;2023-02-01T03:00:28;101115.56;;;5.95;57.50
42169;BME280;27838;43.858;25.974;2023-02-01T03:03:14;101119.09;;;5.97;57.53
42169;BME280;27838;43.858;25.974;2023-02-01T03:05:57;101105.34;;;5.98;56.99
42169;BME280;27838;43.858;25.974;2023-02-01T03:08:29;101116.63;;;6.01;57.07
42169;BME280;27838;43.858;25.974;2023-02-01T03:11:06;101111.38;;;5.98;57.13
42169;BME280;27838;43.858;25.974;2023-02-01T03:13:48;101114.78;;;5.97;56.96
42169;BME280;27838;43.858;25.974;2023-02-01T03:16:39;101105.09;;;5.90;57.21
42169;BME280;27838;43.858;25.974;2023-02-01T03:19:21;101119.75;;;5.90;57.26
42169;BME280;27838;43.858;25.974;2023-02-01T03:21:52;101115.34;;;5.87;57.45
42169;BME280;27838;43.858;25.974;2023-02-01T03:24:41;101123.97;;;5.86;57.30
42169;BME280;27838;43.858;25.974;2023-02-01T03:27:10;101125.00;;;5.93;57.69
42169;BME280;27838;43.858;25.974;2023-02-01T03:29:47;101125.91;;;5.95;57.76
42169;BME280;27838;43.858;25.974;2023-02-01T03:32:16;101123.28;;;5.93;57.27
42169;BME280;27838;43.858;25.974;2023-02-01T03:34:43;101139.78;;;5.97;57.61
42169;BME280;27838;43.858;25.974;2023-02-01T03:37:13;101136.19;;;5.92;57.20
42169;BME280;27838;43.858;25.974;2023-02-01T03:39:56;101132.69;;;5.90;58.35
42169;BME280;27838;43.858;25.974;2023-02-01T03:42:40;101143.03;;;5.90;58.47
42169;BME280;27838;43.858;25.974;2023-02-01T03:45:24;101137.78;;;5.86;58.12
42169;BME280;27838;43.858;25.974;2023-02-01T03:47:56;101137.47;;;5.74;58.46
42169;BME280;27838;43.858;25.974;2023-02-01T03:50:26;101139.91;;;5.68;59.06
42169;BME280;27838;43.858;25.974;2023-02-01T03:53:13;101145.88;;;5.67;59.12
42169;BME280;27838;43.858;25.974;2023-02-01T03:55:41;101145.03;;;5.66;58.96
42169;BME280;27838;43.858;25.974;2023-02-01T03:58:12;101145.66;;;5.58;58.79
42169;BME280;27838;43.858;25.974;2023-02-01T04:00:40;101138.47;;;5.47;59.70
42169;BME280;27838;43.858;25.974;2023-02-01T04:03:07;101141.72;;;5.40;60.30
42169;BME280;27838;43.858;25.974;2023-02-01T04:05:34;101129.63;;;5.39;60.51
42169;BME280;27838;43.858;25.974;2023-02-01T04:08:01;101133.06;;;5.38;60.67
42169;BME280;27838;43.858;25.974;2023-02-01T04:10:28;101140.19;;;5.47;60.32
42169;BME280;27838;43.858;25.974;2023-02-01T04:12:54;101135.78;;;5.44;59.98
42169;BME280;27838;43.858;25.974;2023-02-01T04:15:21;101142.59;;;5.41;60.35
42169;BME280;27838;43.858;25.974;2023-02-01T04:17:47;101147.75;;;5.41;60.69
42169;BME280;27838;43.858;25.974;2023-02-01T04:20:14;101147.06;;;5.46;60.65
42169;BME280;27838;43.858;25.974;2023-02-01T04:22:41;101134.03;;;5.42;60.93
42169;BME280;27838;43.858;25.974;2023-02-01T04:25:07;101147.00;;;5.45;60.56
42169;BME280;27838;43.858;25.974;2023-02-01T04:27:35;101134.97;;;5.45;60.27
42169;BME280;27838;43.858;25.974;2023-02-01T04:30:03;101144.38;;;5.43;60.69
42169;BME280;27838;43.858;25.974;2023-02-01T04:32:29;101149.34;;;5.36;60.68
42169;BME280;27838;43.858;25.974;2023-02-01T04:34:56;101136.38;;;5.34;60.66
42169;BME280;27838;43.858;25.974;2023-02-01T04:37:22;101145.22;;;5.42;60.68
42169;BME280;27838;43.858;25.974;2023-02-01T04:39:49;101149.25;;;5.33;60.43
42169;BME280;27838;43.858;25.974;2023-02-01T04:42:15;101147.31;;;5.25;61.03
42169;BME280;27838;43.858;25.974;2023-02-01T04:44:42;101148.28;;;5.29;60.77
42169;BME280;27838;43.858;25.974;2023-02-01T04:47:08;101142.16;;;5.25;60.61
42169;BME280;27838;43.858;25.974;2023-02-01T04:49:35;101146.41;;;5.23;60.75
42169;BME280;27838;43.858;25.974;2023-02-01T04:52:02;101143.97;;;5.28;60.87
42169;BME280;27838;43.858;25.974;2023-02-01T04:54:29;101137.75;;;5.21;60.63
42169;BME280;27838;43.858;25.974;2023-02-01T04:56:55;101143.72;;;5.20;60.74
42169;BME280;27838;43.858;25.974;2023-02-01T04:59:22;101151.38;;;5.16;60.45
42169;BME280;27838;43.858;25.974;2023-02-01T05:01:48;101142.91;;;5.21;60.60
42169;BME280;27838;43.858;25.974;2023-02-01T05:04:15;101144.78;;;5.27;61.04
42169;BME280;27838;43.858;25.974;2023-02-01T05:06:43;101143.34;;;5.37;60.73
42169;BME280;27838;43.858;25.974;2023-02-01T05:09:10;101148.53;;;5.37;59.96
42169;BME280;27838;43.858;25.974;2023-02-01T05:11:37;101143.31;;;5.35;60.09
42169;BME280;27838;43.858;25.974;2023-02-01T05:14:21;101143.22;;;5.32;60.21
42169;BME280;27838;43.858;25.974;2023-02-01T05:16:48;101138.00;;;5.30;60.17
42169;BME280;27838;43.858;25.974;2023-02-01T05:19:15;101134.53;;;5.30;60.26
42169;BME280;27838;43.858;25.974;2023-02-01T05:21:41;101136.31;;;5.33;60.13
42169;BME280;27838;43.858;25.974;2023-02-01T05:24:08;101139.81;;;5.33;60.08
42169;BME280;27838;43.858;25.974;2023-02-01T05:26:45;101139.88;;;5.36;59.87
42169;BME280;27838;43.858;25.974;2023-02-01T05:29:12;101133.75;;;5.33;60.07
42169;BME280;27838;43.858;25.974;2023-02-01T05:31:39;101146.84;;;5.39;59.74
42169;BME280;27838;43.858;25.974;2023-02-01T05:34:06;101157.34;;;5.45;59.97
42169;BME280;27838;43.858;25.974;2023-02-01T05:36:33;101153.03;;;5.44;59.70
42169;BME280;27838;43.858;25.974;2023-02-01T05:38:59;101154.66;;;5.40;59.76
42169;BME280;27838;43.858;25.974;2023-02-01T05:41:26;101146.63;;;5.31;59.89
42169;BME280;27838;43.858;25.974;2023-02-01T05:43:52;101141.38;;;5.28;59.57
42169;BME280;27838;43.858;25.974;2023-02-01T05:46:19;101142.25;;;5.28;59.76
42169;BME280;27838;43.858;25.974;2023-02-01T05:48:46;101161.34;;;5.34;60.22
42169;BME280;27838;43.858;25.974;2023-02-01T05:51:13;101167.28;;;5.31;59.59
42169;BME280;27838;43.858;25.974;2023-02-01T05:53:39;101165.41;;;5.25;59.82
42169;BME280;27838;43.858;25.974;2023-02-01T05:56:06;101158.50;;;5.24;59.97
42169;BME280;27838;43.858;25.974;2023-02-01T05:58:33;101166.22;;;5.23;59.45
42169;BME280;27838;43.858;25.974;2023-02-01T06:01:00;101159.19;;;5.17;59.44
42169;BME280;27838;43.858;25.974;2023-02-01T06:03:27;101160.91;;;5.18;59.53
42169;BME280;27838;43.858;25.974;2023-02-01T06:05:54;101165.00;;;5.11;59.80
42169;BME280;27838;43.858;25.974;2023-02-01T06:08:21;101159.69;;;5.05;59.89
42169;BME280;27838;43.858;25.974;2023-02-01T06:10:49;101165.91;;;5.12;59.99
42169;BME280;27838;43.858;25.974;2023-02-01T06:13:16;101154.63;;;5.08;60.14
42169;BME280;27838;43.858;25.974;2023-02-01T06:15:42;101156.91;;;4.99;59.68
42169;BME280;27838;43.858;25.974;2023-02-01T06:18:09;101174.38;;;5.08;60.03
42169;BME280;27838;43.858;25.974;2023-02-01T06:20:36;101167.84;;;5.19;59.55
42169;BME280;27838;43.858;25.974;2023-02-01T06:23:02;101172.31;;;5.25;59.50
42169;BME280;27838;43.858;25.974;2023-02-01T06:25:30;101168.75;;;5.21;59.57
42169;BME280;27838;43.858;25.974;2023-02-01T06:28:00;101161.88;;;5.22;58.88
42169;BME280;27838;43.858;25.974;2023-02-01T06:30:27;101162.53;;;5.15;59.54
42169;BME280;27838;43.858;25.974;2023-02-01T06:32:53;101174.13;;;5.29;59.43
42169;BME280;27838;43.858;25.974;2023-02-01T06:35:20;101168.00;;;5.25;59.40
42169;BME280;27838;43.858;25.974;2023-02-01T06:37:46;101170.53;;;5.24;58.80
42169;BME280;27838;43.858;25.974;2023-02-01T06:40:13;101171.50;;;5.26;59.12
42169;BME280;27838;43.858;25.974;2023-02-01T06:42:39;101186.50;;;5.39;58.95
42169;BME280;27838;43.858;25.974;2023-02-01T06:45:06;101189.22;;;5.44;58.74
42169;BME280;27838;43.858;25.974;2023-02-01T06:47:33;101176.34;;;5.45;58.46
42169;BME280;27838;43.858;25.974;2023-02-01T06:50:00;101185.13;;;5.52;58.43
42169;BME280;27838;43.858;25.974;2023-02-01T06:52:26;101185.22;;;5.55;58.18
42169;BME280;27838;43.858;25.974;2023-02-01T06:54:53;101181.84;;;5.58;57.82
42169;BME280;27838;43.858;25.974;2023-02-01T06:57:19;101180.00;;;5.54;57.75
42169;BME280;27838;43.858;25.974;2023-02-01T06:59:46;101187.91;;;5.58;57.49
42169;BME280;27838;43.858;25.974;2023-02-01T07:02:12;101188.50;;;5.49;57.79
42169;BME280;27838;43.858;25.974;2023-02-01T07:04:39;101188.59;;;5.53;58.07
42169;BME280;27838;43.858;25.974;2023-02-01T07:07:05;101192.00;;;5.52;58.26
42169;BME280;27838;43.858;25.974;2023-02-01T07:09:32;101193.78;;;5.53;58.24
42169;BME280;27838;43.858;25.974;2023-02-01T07:11:59;101181.66;;;5.52;57.59
42169;BME280;27838;43.858;25.974;2023-02-01T07:14:25;101185.59;;;5.69;57.29
42169;BME280;27838;43.858;25.974;2023-02-01T07:16:51;101195.44;;;5.82;57.23
42169;BME280;27838;43.858;25.974;2023-02-01T07:19:18;101196.47;;;5.88;57.44
42169;BME280;27838;43.858;25.974;2023-02-01T07:21:44;101207.66;;;5.88;57.18
42169;BME280;27838;43.858;25.974;2023-02-01T07:24:11;101203.13;;;5.79;57.25
42169;BME280;27838;43.858;25.974;2023-02-01T07:26:39;101209.94;;;5.76;56.90
42169;BME280;27838;43.858;25.974;2023-02-01T07:29:06;101211.47;;;5.69;57.18
42169;BME280;27838;43.858;25.974;2023-02-01T07:31:32;101187.91;;;5.58;57.53
42169;BME280;27838;43.858;25.974;2023-02-01T07:33:59;101198.75;;;5.77;57.49
42169;BME280;27838;43.858;25.974;2023-02-01T07:36:27;101195.94;;;5.69;57.58
42169;BME280;27838;43.858;25.974;2023-02-01T07:38:54;101193.41;;;5.71;57.26
42169;BME280;27838;43.858;25.974;2023-02-01T07:41:21;101195.91;;;5.67;57.21
42169;BME280;27838;43.858;25.974;2023-02-01T07:43:47;101189.66;;;5.61;57.84
42169;BME280;27838;43.858;25.974;2023-02-01T07:46:15;101186.25;;;5.62;57.72
42169;BME280;27838;43.858;25.974;2023-02-01T07:48:42;101189.75;;;5.64;57.74
42169;BME280;27838;43.858;25.974;2023-02-01T07:51:14;101179.59;;;5.70;57.77
42169;BME280;27838;43.858;25.974;2023-02-01T07:53:41;101184.00;;;5.74;57.86
42169;BME280;27838;43.858;25.974;2023-02-01T07:56:17;101196.19;;;5.78;57.54
42169;BME280;27838;43.858;25.974;2023-02-01T07:58:48;101198.19;;;5.89;57.88
42169;BME280;27838;43.858;25.974;2023-02-01T08:01:20;101189.47;;;5.85;57.31
42169;BME280;27838;43.858;25.974;2023-02-01T08:03:54;101202.69;;;5.94;56.84
42169;BME280;27838;43.858;25.974;2023-02-01T08:06:22;101208.88;;;5.99;57.35
42169;BME280;27838;43.858;25.974;2023-02-01T08:08:49;101202.25;;;6.11;57.85
42169;BME280;27838;43.858;25.974;2023-02-01T08:11:16;101192.09;;;6.18;57.57
42169;BME280;27838;43.858;25.974;2023-02-01T08:13:43;101197.56;;;6.31;57.01
42169;BME280;27838;43.858;25.974;2023-02-01T08:16:11;101185.63;;;6.36;56.60
42169;BME280;27838;43.858;25.974;2023-02-01T08:18:38;101183.50;;;6.54;56.82
42169;BME280;27838;43.858;25.974;2023-02-01T08:21:06;101182.88;;;6.65;56.63
42169;BME280;27838;43.858;25.974;2023-02-01T08:23:34;101166.63;;;6.72;56.15
42169;BME280;27838;43.858;25.974;2023-02-01T08:26:21;101157.59;;;6.92;55.51
42169;BME280;27838;43.858;25.974;2023-02-01T08:28:51;101172.50;;;7.03;55.42
42169;BME280;27838;43.858;25.974;2023-02-01T08:31:19;101170.13;;;7.13;55.83
42169;BME280;27838;43.858;25.974;2023-02-01T08:34:04;101178.28;;;7.32;56.15
42169;BME280;27838;43.858;25.974;2023-02-01T08:36:31;101173.22;;;7.38;55.04
42169;BME280;27838;43.858;25.974;2023-02-01T08:38:58;101174.41;;;7.54;55.14
42169;BME280;27838;43.858;25.974;2023-02-01T08:41:27;101188.59;;;7.71;54.98
42169;BME280;27838;43.858;25.974;2023-02-01T08:43:54;101185.31;;;7.82;54.80
42169;BME280;27838;43.858;25.974;2023-02-01T08:46:22;101190.59;;;7.88;55.27
42169;BME280;27838;43.858;25.974;2023-02-01T08:48:48;101187.25;;;7.92;55.12
42169;BME280;27838;43.858;25.974;2023-02-01T08:51:17;101190.16;;;8.10;54.50
42169;BME280;27838;43.858;25.974;2023-02-01T08:53:44;101181.53;;;8.11;54.11
42169;BME280;27838;43.858;25.974;2023-02-01T08:56:12;101174.72;;;8.18;53.89
42169;BME280;27838;43.858;25.974;2023-02-01T08:58:39;101167.94;;;8.28;53.23
42169;BME280;27838;43.858;25.974;2023-02-01T09:01:13;101174.97;;;8.34;52.77
42169;BME280;27838;43.858;25.974;2023-02-01T09:03:40;101156.00;;;8.38;53.98
42169;BME280;27838;43.858;25.974;2023-02-01T09:06:10;101171.06;;;8.59;54.24
42169;BME280;27838;43.858;25.974;2023-02-01T09:08:39;101172.06;;;8.67;53.59
42169;BME280;27838;43.858;25.974;2023-02-01T09:11:07;101165.25;;;8.75;53.53
42169;BME280;27838;43.858;25.974;2023-02-01T09:13:34;101166.34;;;8.93;52.88
42169;BME280;27838;43.858;25.974;2023-02-01T09:16:02;101168.94;;;8.93;51.99
42169;BME280;27838;43.858;25.974;2023-02-01T09:18:28;101156.81;;;8.90;52.34
42169;BME280;27838;43.858;25.974;2023-02-01T09:20:55;101162.16;;;9.02;52.08
42169;BME280;27838;43.858;25.974;2023-02-01T09:23:22;101161.31;;;9.02;51.76
42169;BME280;27838;43.858;25.974;2023-02-01T09:25:48;101156.88;;;8.95;51.28
42169;BME280;27838;43.858;25.974;2023-02-01T09:28:17;101154.06;;;8.82;51.34
42169;BME280;27838;43.858;25.974;2023-02-01T09:30:44;101150.56;;;8.77;51.59
42169;BME280;27838;43.858;25.974;2023-02-01T09:33:10;101142.81;;;8.82;52.65
42169;BME280;27838;43.858;25.974;2023-02-01T09:35:37;101138.75;;;9.01;52.14
42169;BME280;27838;43.858;25.974;2023-02-01T09:38:03;101149.22;;;9.07;51.88
42169;BME280;27838;43.858;25.974;2023-02-01T09:40:30;101117.97;;;9.04;52.19
42169;BME280;27838;43.858;25.974;2023-02-01T09:48:15;101129.88;;;9.58;50.66
42169;BME280;27838;43.858;25.974;2023-02-01T09:50:52;101128.25;;;9.70;50.23
42169;BME280;27838;43.858;25.974;2023-02-01T09:55:51;101129.97;;;9.68;50.54
42169;BME280;27838;43.858;25.974;2023-02-01T09:58:40;101131.00;;;9.85;50.51
42169;BME280;27838;43.858;25.974;2023-02-01T10:01:34;101120.72;;;9.99;49.92
42169;BME280;27838;43.858;25.974;2023-02-01T10:04:05;101119.03;;;10.06;50.35
42169;BME280;27838;43.858;25.974;2023-02-01T10:06:44;101125.22;;;10.15;49.75
42169;BME280;27838;43.858;25.974;2023-02-01T10:09:24;101113.91;;;10.12;49.29
42169;BME280;27838;43.858;25.974;2023-02-01T10:13:03;101113.78;;;10.02;50.06
42169;BME280;27838;43.858;25.974;2023-02-01T10:20:18;101099.38;;;10.42;49.64
42169;BME280;27838;43.858;25.974;2023-02-01T10:22:53;101096.78;;;10.42;49.46
42169;BME280;27838;43.858;25.974;2023-02-01T10:25:37;101084.66;;;10.47;49.72
42169;BME280;27838;43.858;25.974;2023-02-01T10:28:13;101089.94;;;10.59;49.87
42169;BME280;27838;43.858;25.974;2023-02-01T10:30:46;101077.78;;;10.61;48.91
42169;BME280;27838;43.858;25.974;2023-02-01T10:35:54;101073.47;;;10.66;48.43
42169;BME280;27838;43.858;25.974;2023-02-01T10:38:27;101069.94;;;10.58;48.64
42169;BME280;27838;43.858;25.974;2023-02-01T10:41:11;101075.13;;;10.56;48.24
42169;BME280;27838;43.858;25.974;2023-02-01T10:43:39;101067.19;;;10.39;48.75
42169;BME280;27838;43.858;25.974;2023-02-01T10:46:06;101068.94;;;10.37;49.26
42169;BME280;27838;43.858;25.974;2023-02-01T10:48:34;101062.84;;;10.34;49.45
42169;BME280;27838;43.858;25.974;2023-02-01T10:51:06;101061.19;;;10.45;48.83
42169;BME280;27838;43.858;25.974;2023-02-01T10:53:52;101057.69;;;10.42;48.22
42169;BME280;27838;43.858;25.974;2023-02-01T10:56:24;101055.06;;;10.40;48.91
42169;BME280;27838;43.858;25.974;2023-02-01T10:59:00;101044.72;;;10.54;48.95
42169;BME280;27838;43.858;25.974;2023-02-01T11:01:34;101045.56;;;10.51;48.29
42169;BME280;27838;43.858;25.974;2023-02-01T11:04:03;101048.09;;;10.34;49.31
42169;BME280;27838;43.858;25.974;2023-02-01T11:06:47;101047.22;;;10.35;48.98
42169;BME280;27838;43.858;25.974;2023-02-01T11:09:18;101045.50;;;10.41;49.25
42169;BME280;27838;43.858;25.974;2023-02-01T11:16:48;101034.94;;;10.24;49.71
42169;BME280;27838;43.858;25.974;2023-02-01T11:19:17;101030.53;;;10.15;49.43
42169;BME280;27838;43.858;25.974;2023-02-01T11:21:44;101014.81;;;9.96;49.96
42169;BME280;27838;43.858;25.974;2023-02-01T11:26:57;101016.59;;;10.04;51.20
42169;BME280;27838;43.858;25.974;2023-02-01T11:29:25;101014.00;;;10.07;50.89
42169;BME280;27838;43.858;25.974;2023-02-01T11:31:57;101013.19;;;10.14;51.03
42169;BME280;27838;43.858;25.974;2023-02-01T11:34:38;101011.41;;;10.05;51.02
42169;BME280;27838;43.858;25.974;2023-02-01T11:37:36;101006.06;;;9.90;51.34
42169;BME280;27838;43.858;25.974;2023-02-01T11:43:00;100988.66;;;9.81;52.08
42169;BME280;27838;43.858;25.974;2023-02-01T11:45:29;100983.50;;;9.86;51.90
42169;BME280;27838;43.858;25.974;2023-02-01T11:47:58;100989.63;;;9.95;51.57
42169;BME280;27838;43.858;25.974;2023-02-01T11:53:38;100980.03;;;9.90;51.57
42169;BME280;27838;43.858;25.974;2023-02-01T11:59:23;100979.25;;;10.05;51.75
42169;BME280;27838;43.858;25.974;2023-02-01T12:02:28;100971.56;;;10.26;51.77
42169;BME280;27838;43.858;25.974;2023-02-01T12:05:22;100978.53;;;10.24;51.52
42169;BME280;27838;43.858;25.974;2023-02-01T12:16:35;100959.53;;;10.48;51.63
42169;BME280;27838;43.858;25.974;2023-02-01T12:19:27;100951.78;;;10.59;51.21
42169;BME280;27838;43.858;25.974;2023-02-01T12:33:21;100952.72;;;10.92;50.04
42169;BME280;27838;43.858;25.974;2023-02-01T12:38:54;100949.22;;;10.79;49.51
42169;BME280;27838;43.858;25.974;2023-02-01T12:47:20;100947.53;;;11.01;49.75
42169;BME280;27838;43.858;25.974;2023-02-01T12:52:37;100938.88;;;11.11;49.54
42169;BME280;27838;43.858;25.974;2023-02-01T12:55:16;100936.25;;;11.18;49.02
42169;BME280;27838;43.858;25.974;2023-02-01T13:00:44;100934.50;;;11.12;48.95
42169;BME280;27838;43.858;25.974;2023-02-01T13:08:40;100923.22;;;11.21;48.65
42169;BME280;27838;43.858;25.974;2023-02-01T13:11:24;100928.41;;;11.13;48.43
42169;BME280;27838;43.858;25.974;2023-02-01T13:16:43;100930.16;;;10.92;48.58
42169;BME280;27838;43.858;25.974;2023-02-01T13:19:33;100921.47;;;11.01;48.14
42169;BME280;27838;43.858;25.974;2023-02-01T13:22:10;100932.78;;;11.06;48.05
42169;BME280;27838;43.858;25.974;2023-02-01T13:24:47;100931.88;;;11.04;47.96
42169;BME280;27838;43.858;25.974;2023-02-01T13:27:16;100937.94;;;10.95;47.56
42169;BME280;27838;43.858;25.974;2023-02-01T13:30:01;100937.97;;;10.94;47.40
42169;BME280;27838;43.858;25.974;2023-02-01T13:43:44;100934.47;;;10.95;48.06
42169;BME280;27838;43.858;25.974;2023-02-01T13:46:13;100928.41;;;10.93;48.44
42169;BME280;27838;43.858;25.974;2023-02-01T13:48:51;100931.88;;;10.89;48.57
42169;BME280;27838;43.858;25.974;2023-02-01T13:51:35;100931.88;;;10.89;48.34
42169;BME280;27838;43.858;25.974;2023-02-01T13:54:04;100942.28;;;10.92;48.61
42169;BME280;27838;43.858;25.974;2023-02-01T13:56:40;100930.13;;;10.91;49.23
42169;BME280;27838;43.858;25.974;2023-02-01T14:05:57;100941.38;;;10.67;48.67
42169;BME280;27838;43.858;25.974;2023-02-01T14:18:59;100930.06;;;10.69;49.02
42169;BME280;27838;43.858;25.974;2023-02-01T14:21:29;100924.84;;;10.63;48.80
42169;BME280;27838;43.858;25.974;2023-02-01T14:24:01;100928.31;;;10.62;49.12
42169;BME280;27838;43.858;25.974;2023-02-01T14:34:35;100930.03;;;10.60;49.89
42169;BME280;27838;43.858;25.974;2023-02-01T14:37:11;100940.47;;;10.57;50.11
42169;BME280;27838;43.858;25.974;2023-02-01T14:42:44;100939.59;;;10.50;50.58
42169;BME280;27838;43.858;25.974;2023-02-01T14:47:51;100946.53;;;10.47;51.09
42169;BME280;27838;43.858;25.974;2023-02-01T14:55:51;100943.03;;;10.40;51.49
42169;BME280;27838;43.858;25.974;2023-02-01T15:01:02;100932.59;;;10.40;51.58
42169;BME280;27838;43.858;25.974;2023-02-01T15:06:03;100945.56;;;10.32;51.80
42169;BME280;27838;43.858;25.974;2023-02-01T15:08:34;100947.34;;;10.36;51.80
42169;BME280;27838;43.858;25.974;2023-02-01T15:11:14;100943.88;;;10.41;51.94
42169;BME280;27838;43.858;25.974;2023-02-01T15:13:48;100943.03;;;10.49;51.98
42169;BME280;27838;43.858;25.974;2023-02-01T15:16:16;100937.84;;;10.52;52.14
42169;BME280;27838;43.858;25.974;2023-02-01T15:18:43;100950.06;;;10.63;51.62
42169;BME280;27838;43.858;25.974;2023-02-01T15:21:28;100950.06;;;10.67;51.65
42169;BME280;27838;43.858;25.974;2023-02-01T15:24:10;100952.66;;;10.67;51.55
42169;BME280;27838;43.858;25.974;2023-02-01T15:26:37;100950.06;;;10.63;51.29
42169;BME280;27838;43.858;25.974;2023-02-01T15:29:03;100951.78;;;10.62;51.29
42169;BME280;27838;43.858;25.974;2023-02-01T15:31:39;100953.50;;;10.60;51.13
42169;BME280;27838;43.858;25.974;2023-02-01T15:34:07;100949.13;;;10.53;51.26
42169;BME280;27838;43.858;25.974;2023-02-01T15:36:34;100954.34;;;10.53;50.74
42169;BME280;27838;43.858;25.974;2023-02-01T15:41:56;100951.78;;;10.59;50.44